createdAt,value
2018-05-08T00:00:51.668Z,2.37
2018-05-08T00:03:21.632Z,2.23
2018-05-08T00:05:49.671Z,2.30
2018-05-08T00:08:19.339Z,1.90
2018-05-08T00:10:50.047Z,2.20
2018-05-08T00:13:21.971Z,1.90
2018-05-08T00:15:53.789Z,1.93
2018-05-08T00:18:32.132Z,2.40
2018-05-08T00:21:05.876Z,2.30
2018-05-08T00:23:33.891Z,2.57
2018-05-08T00:26:07.684Z,2.23
2018-05-08T00:28:38.796Z,2.60
2018-05-08T00:31:06.816Z,2.30
2018-05-08T00:33:35.716Z,2.40
2018-05-08T00:36:08.852Z,2.43
2018-05-08T00:38:37.867Z,2.00
2018-05-08T00:41:05.876Z,2.10
2018-05-08T00:43:34.849Z,2.17
2018-05-08T00:46:05.827Z,3.10
2018-05-08T00:48:34.747Z,2.50
2018-05-08T00:51:09.211Z,3.00
2018-05-08T00:53:38.276Z,2.57
2018-05-08T00:56:08.955Z,3.07
2018-05-08T00:58:43.372Z,2.63
2018-05-08T01:01:16.368Z,3.60
2018-05-08T01:03:44.407Z,2.10
2018-05-08T01:06:19.339Z,2.20
2018-05-08T01:08:48.375Z,2.60
2018-05-08T01:11:18.383Z,2.33
2018-05-08T01:13:46.388Z,2.27
2018-05-08T01:16:15.196Z,2.80
2018-05-08T01:18:43.215Z,2.30
2018-05-08T01:21:11.219Z,3.10
2018-05-08T01:23:41.088Z,1.80
2018-05-08T01:26:09.031Z,2.13
2018-05-08T01:28:37.040Z,2.23
2018-05-08T01:31:10.439Z,2.07
2018-05-08T01:33:39.419Z,1.90
2018-05-08T01:36:17.819Z,2.03
2018-05-08T01:38:45.835Z,2.00
2018-05-08T01:41:15.627Z,2.30
2018-05-08T01:43:48.314Z,1.93
2018-05-08T01:46:22.871Z,2.03
2018-05-08T01:48:52.849Z,2.27
2018-05-08T01:51:24.576Z,2.60
2018-05-08T01:53:52.606Z,2.80
2018-05-08T01:56:20.620Z,2.67
2018-05-08T01:58:50.843Z,2.80
2018-05-08T02:01:18.872Z,3.30
2018-05-08T02:03:47.803Z,2.90
2018-05-08T02:06:16.799Z,2.57
2018-05-08T02:08:44.831Z,2.60
2018-05-08T02:11:16.128Z,2.70
2018-05-08T02:13:54.523Z,2.90
2018-05-08T02:16:22.532Z,3.10
2018-05-08T02:18:52.299Z,3.20
2018-05-08T02:21:33.240Z,2.17
2018-05-08T02:24:04.532Z,2.67
2018-05-08T02:26:33.524Z,2.40
2018-05-08T02:29:03.543Z,3.20
2018-05-08T02:31:31.548Z,1.97
2018-05-08T02:34:04.296Z,2.30
2018-05-08T02:36:34.295Z,2.50
2018-05-08T02:39:03.300Z,2.87
2018-05-08T02:41:31.328Z,3.13
2018-05-08T02:43:59.340Z,2.37
2018-05-08T02:46:27.359Z,2.60
2018-05-08T02:48:59.064Z,2.70
2018-05-08T02:51:34.572Z,2.67
2018-05-08T02:54:02.584Z,2.73
2018-05-08T02:56:30.608Z,2.20
2018-05-08T02:59:00.567Z,2.57
2018-05-08T03:01:28.584Z,2.93
2018-05-08T03:03:56.595Z,2.90
2018-05-08T03:06:31.003Z,2.80
2018-05-08T03:09:00.012Z,2.33
2018-05-08T03:11:28.019Z,2.57
2018-05-08T03:14:04.928Z,2.90
2018-05-08T03:16:36.104Z,2.50
2018-05-08T03:19:06.126Z,2.97
2018-05-08T03:21:35.106Z,3.13
2018-05-08T03:24:04.103Z,2.83
2018-05-08T03:26:35.869Z,2.55
2018-05-08T03:29:07.707Z,2.67
2018-05-08T03:31:37.651Z,2.57
2018-05-08T03:34:05.659Z,3.07
2018-05-08T03:36:35.603Z,2.30
2018-05-08T03:39:03.615Z,2.50
2018-05-08T03:41:34.322Z,2.97
2018-05-08T03:44:03.311Z,2.53
2018-05-08T03:46:31.322Z,2.57
2018-05-08T03:49:05.885Z,2.53
2018-05-08T03:51:46.919Z,2.93
2018-05-08T03:54:15.698Z,2.73
2018-05-08T03:56:46.391Z,3.43
2018-05-08T03:59:14.406Z,2.93
2018-05-08T04:01:56.266Z,2.70
2018-05-08T04:04:45.294Z,3.60
2018-05-08T04:07:27.078Z,3.40
2018-05-08T04:09:55.095Z,2.33
2018-05-08T04:12:27.366Z,3.23
2018-05-08T04:15:09.503Z,3.12
2018-05-08T04:17:45.403Z,3.30
2018-05-08T04:20:13.415Z,2.80
2018-05-08T04:22:41.439Z,2.80
2018-05-08T04:25:10.461Z,2.50
2018-05-08T04:27:38.471Z,2.60
2018-05-08T04:30:06.480Z,2.70
2018-05-08T04:32:36.510Z,2.80
2018-05-08T04:35:04.514Z,2.90
2018-05-08T04:37:33.458Z,2.87
2018-05-08T04:40:01.491Z,3.20
2018-05-08T04:42:30.414Z,2.90
2018-05-08T04:44:59.399Z,3.13
2018-05-08T04:47:28.418Z,3.93
2018-05-08T04:49:56.420Z,2.37
2018-05-08T04:52:31.395Z,2.70
2018-05-08T04:55:00.399Z,2.30
2018-05-08T04:57:29.383Z,2.80
2018-05-08T04:59:57.991Z,2.93
2018-05-08T05:02:25.991Z,2.50
2018-05-08T05:04:53.998Z,3.27
2018-05-08T05:07:31.882Z,3.50
2018-05-08T05:09:59.907Z,3.20
2018-05-08T05:12:32.990Z,3.30
2018-05-08T05:15:01.011Z,2.77
2018-05-08T05:17:33.262Z,2.97
2018-05-08T05:20:04.968Z,3.77
2018-05-08T05:22:32.982Z,2.63
2018-05-08T05:25:00.991Z,2.77
2018-05-08T05:27:34.099Z,2.37
2018-05-08T05:30:03.083Z,2.80
2018-05-08T05:32:34.468Z,2.80
2018-05-08T05:35:03.422Z,3.00
2018-05-08T05:37:33.432Z,3.50
2018-05-08T05:40:01.463Z,2.67
2018-05-08T05:42:35.192Z,2.80
2018-05-08T05:45:03.155Z,4.17
2018-05-08T05:47:31.159Z,2.83
2018-05-08T05:50:03.531Z,2.47
2018-05-08T05:52:31.543Z,3.83
2018-05-08T05:54:59.583Z,2.87
2018-05-08T05:57:34.390Z,2.70
2018-05-08T06:00:07.128Z,2.70
2018-05-08T06:02:35.104Z,3.77
2018-05-08T06:05:06.883Z,2.60
2018-05-08T06:07:39.575Z,2.93
2018-05-08T06:10:13.378Z,2.90
2018-05-08T06:12:43.415Z,2.40
2018-05-08T06:15:11.423Z,3.50
2018-05-08T06:17:39.438Z,2.57
2018-05-08T06:20:07.456Z,2.80
2018-05-08T06:22:35.454Z,2.47
2018-05-08T06:25:06.794Z,3.50
2018-05-08T06:27:36.514Z,2.83
2018-05-08T06:30:04.538Z,3.43
2018-05-08T06:32:33.330Z,3.83
2018-05-08T06:35:02.106Z,2.20
2018-05-08T06:37:30.883Z,2.50
2018-05-08T06:39:58.915Z,4.27
2018-05-08T06:42:27.680Z,2.93
2018-05-08T06:44:55.682Z,2.47
2018-05-08T06:47:24.687Z,2.87
2018-05-08T06:50:02.578Z,2.60
2018-05-08T06:52:36.131Z,3.23
2018-05-08T06:55:04.903Z,2.90
2018-05-08T06:57:33.674Z,2.37
2018-05-08T07:00:06.239Z,4.17
2018-05-08T07:02:34.254Z,2.17
2018-05-08T07:05:03.183Z,2.20
2018-05-08T07:07:31.210Z,2.10
2018-05-08T07:09:59.982Z,2.87
2018-05-08T07:12:29.886Z,2.30
2018-05-08T07:14:58.848Z,2.33
2018-05-08T07:17:26.850Z,2.67
2018-05-08T07:19:58.375Z,2.80
2018-05-08T07:22:26.378Z,2.53
2018-05-08T07:24:58.633Z,2.90
2018-05-08T07:27:27.594Z,2.20
2018-05-08T07:29:58.656Z,2.10
2018-05-08T07:32:26.550Z,1.90
2018-05-08T07:34:55.314Z,2.23
2018-05-08T07:37:23.334Z,2.67
2018-05-08T07:39:54.650Z,2.60
2018-05-08T07:42:23.470Z,2.20
2018-05-08T07:44:56.346Z,2.23
2018-05-08T07:47:26.330Z,2.13
2018-05-08T07:49:56.034Z,2.33
2018-05-08T07:52:26.030Z,3.20
2018-05-08T07:54:54.034Z,2.43
2018-05-08T07:57:22.978Z,2.87
2018-05-08T08:00:02.934Z,2.00
2018-05-08T08:02:31.883Z,2.40
2018-05-08T08:05:01.870Z,2.30
2018-05-08T08:07:34.745Z,1.80
2018-05-08T08:10:06.370Z,2.57
2018-05-08T08:12:35.646Z,1.83
2018-05-08T08:15:03.649Z,1.60
2018-05-08T08:17:38.165Z,2.40
2018-05-08T08:20:06.180Z,2.23
2018-05-08T08:22:36.146Z,1.80
2018-05-08T08:25:21.562Z,1.80
2018-05-08T08:28:09.426Z,2.13
2018-05-08T08:30:37.441Z,2.30
2018-05-08T08:33:06.337Z,2.27
2018-05-08T08:35:34.347Z,2.23
2018-05-08T08:38:03.134Z,2.30
2018-05-08T08:40:31.910Z,2.40
2018-05-08T08:43:07.998Z,2.40
2018-05-08T08:45:37.946Z,5.17
2018-05-08T08:48:11.138Z,1.87
2018-05-08T08:50:46.542Z,2.03
2018-05-08T08:53:16.510Z,1.97
2018-05-08T08:55:49.170Z,2.57
2018-05-08T08:58:18.167Z,2.87
2018-05-08T09:00:47.148Z,2.23
2018-05-08T09:03:15.715Z,2.40
2018-05-08T09:05:56.363Z,2.80
2018-05-08T09:08:24.367Z,2.40
2018-05-08T09:10:52.363Z,2.60
2018-05-08T09:13:21.331Z,2.27
2018-05-08T09:15:53.690Z,2.87
2018-05-08T09:18:27.318Z,3.00
2018-05-08T09:21:10.473Z,2.83
2018-05-08T09:23:41.183Z,2.73
2018-05-08T09:26:09.184Z,2.50
2018-05-08T09:28:38.938Z,2.30
2018-05-08T09:31:06.947Z,2.40
2018-05-08T09:33:37.611Z,2.47
2018-05-08T09:36:15.269Z,2.17
2018-05-08T09:38:45.162Z,2.20
2018-05-08T09:41:17.027Z,2.33
2018-05-08T09:43:49.632Z,2.20
2018-05-08T09:46:23.198Z,2.70
2018-05-08T09:48:51.270Z,2.93
2018-05-08T09:51:30.260Z,2.30
2018-05-08T09:53:59.270Z,2.47
2018-05-08T09:56:29.179Z,2.43
2018-05-08T09:59:00.955Z,2.33
2018-05-08T10:01:28.987Z,2.70
2018-05-08T10:03:56.978Z,2.77
2018-05-08T10:06:25.894Z,2.47
2018-05-08T10:08:54.874Z,2.87
2018-05-08T10:11:22.875Z,2.37
2018-05-08T10:13:52.655Z,2.57
2018-05-08T10:16:24.266Z,2.17
2018-05-08T10:18:55.922Z,3.23
2018-05-08T10:21:30.346Z,2.50
2018-05-08T10:23:58.359Z,2.70
2018-05-08T10:26:28.254Z,1.90
2018-05-08T10:28:56.266Z,2.00
2018-05-08T10:31:24.286Z,2.13
2018-05-08T10:33:55.906Z,2.60
2018-05-08T10:36:26.703Z,2.57
2018-05-08T10:38:54.698Z,2.60
2018-05-08T10:41:24.473Z,2.37
2018-05-08T10:43:52.490Z,3.17
2018-05-08T10:46:21.263Z,2.67
2018-05-08T10:49:04.918Z,3.03
2018-05-08T10:51:32.918Z,3.10
2018-05-08T10:54:01.828Z,2.77
2018-05-08T10:56:32.865Z,2.40
2018-05-08T10:59:04.507Z,2.80
2018-05-08T11:01:34.484Z,2.47
2018-05-08T11:04:03.414Z,2.00
2018-05-08T11:06:31.414Z,3.00
2018-05-08T11:09:10.094Z,2.80
2018-05-08T11:11:38.086Z,2.90
2018-05-08T11:14:06.102Z,2.37
2018-05-08T11:16:34.894Z,2.93
2018-05-08T11:19:28.262Z,2.87
2018-05-08T11:22:17.825Z,3.20
2018-05-08T11:24:46.634Z,2.77
2018-05-08T11:27:22.814Z,2.67
2018-05-08T11:30:00.581Z,2.37
2018-05-08T11:32:30.549Z,2.70
2018-05-08T11:34:58.561Z,2.80
2018-05-08T11:37:26.566Z,2.60
2018-05-08T11:39:56.258Z,2.60
2018-05-08T11:42:31.926Z,2.87
2018-05-08T11:45:09.658Z,2.60
2018-05-08T11:47:38.617Z,3.03
2018-05-08T11:50:06.671Z,2.90
2018-05-08T11:52:39.385Z,2.23
2018-05-08T11:55:19.804Z,3.03
2018-05-08T11:57:47.822Z,3.20
2018-05-08T12:00:18.934Z,2.80
2018-05-08T12:02:46.970Z,3.07
2018-05-08T12:05:15.733Z,3.20
2018-05-08T12:07:48.082Z,3.07
2018-05-08T12:10:16.094Z,4.07
2018-05-08T12:12:44.461Z,2.83
2018-05-08T12:15:18.315Z,2.40
2018-05-08T12:17:51.274Z,3.10
2018-05-08T12:20:20.222Z,2.33
2018-05-08T12:22:50.214Z,2.80
2018-05-08T12:25:18.266Z,2.70
2018-05-08T12:27:48.234Z,2.07
2018-05-08T12:30:18.226Z,2.10
2018-05-08T12:32:52.930Z,2.17
2018-05-08T12:35:28.882Z,2.30
2018-05-08T12:37:56.906Z,2.20
2018-05-08T12:40:25.894Z,2.40
2018-05-08T12:43:10.681Z,2.40
2018-05-08T12:45:40.450Z,1.87
2018-05-08T12:48:08.470Z,2.10
2018-05-08T12:50:37.405Z,2.63
2018-05-08T12:53:10.111Z,2.17
2018-05-08T12:55:38.997Z,2.30
2018-05-08T12:58:07.005Z,2.30
2018-05-08T13:00:35.002Z,2.40
2018-05-08T13:03:03.927Z,2.30
2018-05-08T13:05:33.609Z,2.57
2018-05-08T13:08:07.221Z,2.37
2018-05-08T13:10:35.221Z,2.43
2018-05-08T13:13:06.001Z,2.10
2018-05-08T13:15:34.016Z,2.50
2018-05-08T13:18:04.718Z,2.10
2018-05-08T13:20:34.737Z,3.20
2018-05-08T13:23:03.729Z,2.37
2018-05-08T13:25:31.725Z,2.47
2018-05-08T13:28:06.991Z,2.00
2018-05-08T13:30:39.013Z,2.60
2018-05-08T13:33:09.014Z,2.40
2018-05-08T13:35:37.914Z,2.30
2018-05-08T13:38:05.933Z,2.50
2018-05-08T13:40:39.730Z,2.43
2018-05-08T13:43:07.721Z,2.47
2018-05-08T13:45:37.706Z,2.60
2018-05-08T13:48:05.728Z,2.47
2018-05-08T13:50:33.726Z,2.33
2018-05-08T13:53:02.625Z,2.20
2018-05-08T13:55:31.621Z,2.20
2018-05-08T13:58:00.401Z,2.40
2018-05-08T14:00:33.417Z,2.80
2018-05-08T14:03:02.341Z,2.80
2018-05-08T14:05:35.801Z,2.33
2018-05-08T14:08:10.219Z,2.40
2018-05-08T14:10:38.249Z,2.30
2018-05-08T14:13:06.483Z,2.40
2018-05-08T14:15:34.259Z,2.13
2018-05-08T14:18:03.289Z,2.00
2018-05-08T14:20:32.277Z,2.60
2018-05-08T14:23:02.261Z,2.33
2018-05-08T14:25:35.795Z,1.93
2018-05-08T14:28:03.797Z,2.63
2018-05-08T14:30:34.569Z,2.00
2018-05-08T14:33:03.577Z,2.10
2018-05-08T14:35:31.569Z,2.30
2018-05-08T14:38:02.252Z,2.30
2018-05-08T14:40:31.245Z,2.30
2018-05-08T14:42:59.248Z,2.77
2018-05-08T14:45:33.111Z,2.30
2018-05-08T14:48:06.801Z,2.83
2018-05-08T14:50:39.776Z,2.67
2018-05-08T14:53:07.781Z,2.40
2018-05-08T14:55:35.777Z,2.47
2018-05-08T14:58:06.933Z,2.40
2018-05-08T15:00:39.866Z,2.97
2018-05-08T15:03:07.870Z,2.27
2018-05-08T15:05:35.879Z,2.47
2018-05-08T15:10:33.709Z,2.60
2018-05-08T15:13:01.707Z,2.63
2018-05-08T15:15:33.329Z,3.00
2018-05-08T15:18:01.328Z,2.53
2018-05-08T15:20:32.745Z,2.80
2018-05-08T15:23:02.745Z,2.33
2018-05-08T15:25:30.752Z,2.67
2018-05-08T15:28:17.847Z,2.73
2018-05-08T15:30:45.844Z,2.43
2018-05-08T15:33:17.572Z,2.40
2018-05-08T15:35:46.556Z,2.43
2018-05-08T15:38:21.760Z,2.17
2018-05-08T15:40:50.644Z,2.70
2018-05-08T15:43:18.665Z,2.40
2018-05-08T15:45:48.576Z,2.53
2018-05-08T15:48:22.953Z,2.30
2018-05-08T15:50:54.980Z,2.77
2018-05-08T15:53:22.984Z,4.00
2018-05-08T15:55:51.904Z,3.30
2018-05-08T15:58:32.979Z,2.40
2018-05-08T16:01:00.983Z,2.53
2018-05-08T16:03:28.976Z,2.50
2018-05-08T16:06:03.544Z,3.00
2018-05-08T16:08:32.436Z,2.37
2018-05-08T16:11:00.424Z,3.00
2018-05-08T16:13:29.408Z,2.20
2018-05-08T16:16:10.420Z,2.60
2018-05-08T16:18:39.209Z,2.43
2018-05-08T16:21:14.365Z,2.63
2018-05-08T16:23:42.377Z,2.40
2018-05-08T16:26:16.752Z,2.63
2018-05-08T16:28:47.940Z,2.47
2018-05-08T16:31:16.836Z,2.47
2018-05-08T16:33:44.888Z,2.67
2018-05-08T16:36:12.907Z,2.50
2018-05-08T16:38:41.843Z,2.67
2018-05-08T16:41:11.794Z,2.37
2018-05-08T16:43:43.116Z,2.57
2018-05-08T16:46:11.116Z,2.93
2018-05-08T16:48:41.100Z,2.20
2018-05-08T16:51:10.108Z,2.97
2018-05-08T16:53:38.117Z,3.30
2018-05-08T16:56:07.864Z,2.60
2018-05-08T16:58:40.487Z,2.80
2018-05-08T17:01:09.440Z,2.33
2018-05-08T17:03:38.448Z,2.40
2018-05-08T17:06:07.416Z,2.80
2018-05-08T17:08:46.341Z,2.47
2018-05-08T17:11:20.128Z,2.37
2018-05-08T17:13:58.773Z,2.43
2018-05-08T17:16:38.005Z,2.90
2018-05-08T17:19:06.133Z,2.90
2018-05-08T17:21:44.780Z,3.10
2018-05-08T17:24:13.796Z,3.00
2018-05-08T17:26:41.793Z,2.80
2018-05-08T17:29:11.792Z,2.80
2018-05-08T17:31:40.776Z,2.97
2018-05-08T17:34:12.445Z,3.03
2018-05-08T17:36:41.428Z,3.37
2018-05-08T17:39:11.324Z,2.90
2018-05-08T17:41:44.180Z,2.87
2018-05-08T17:44:12.344Z,2.00
2018-05-08T17:46:40.993Z,2.73
2018-05-08T17:49:09.008Z,2.73
2018-05-08T17:51:37.012Z,2.90
2018-05-08T17:54:15.008Z,2.43
2018-05-08T17:56:43.032Z,2.77
2018-05-08T17:59:15.225Z,2.80
2018-05-08T18:04:48.364Z,2.80
2018-05-08T18:07:37.475Z,2.70
2018-05-08T18:10:13.086Z,3.27
2018-05-08T18:12:53.757Z,3.17
2018-05-08T18:15:42.764Z,3.50
2018-05-08T18:21:11.116Z,3.33
2018-05-08T18:23:39.144Z,3.10
2018-05-08T18:26:10.328Z,3.23
2018-05-08T18:28:44.542Z,3.07
2018-05-08T18:31:17.676Z,3.33
2018-05-08T18:33:46.632Z,3.43
2018-05-08T18:36:18.996Z,2.87
2018-05-08T18:41:50.945Z,3.17
2018-05-08T18:44:38.547Z,3.60
2018-05-08T18:47:12.543Z,3.53
2018-05-08T18:49:47.996Z,3.63
2018-05-08T18:52:22.167Z,3.10
2018-05-08T18:54:53.947Z,2.63
2018-05-08T18:57:22.719Z,5.60
2018-05-08T18:59:51.695Z,3.63
2018-05-08T19:02:23.147Z,3.30
2018-05-08T19:04:51.153Z,2.90
2018-05-08T19:07:23.500Z,3.30
2018-05-08T19:10:10.687Z,3.13
2018-05-08T19:12:38.739Z,3.53
2018-05-08T19:15:19.251Z,3.43
2018-05-08T19:17:48.303Z,4.30
2018-05-08T19:20:18.247Z,3.03
2018-05-08T19:22:47.259Z,3.33
2018-05-08T19:25:16.263Z,2.53
2018-05-08T19:27:45.215Z,3.63
2018-05-08T19:30:24.479Z,3.33
2018-05-08T19:33:06.088Z,3.60
2018-05-08T19:35:43.971Z,3.60
2018-05-08T19:38:15.884Z,3.47
2018-05-08T19:40:47.875Z,3.40
2018-05-08T19:43:15.891Z,4.03
2018-05-08T19:45:44.656Z,3.40
2018-05-08T19:48:20.864Z,3.50
2018-05-08T19:50:50.806Z,3.40
2018-05-08T19:53:18.824Z,4.03
2018-05-08T19:55:47.603Z,3.30
2018-05-08T19:58:21.615Z,4.23
2018-05-08T20:00:49.703Z,3.93
2018-05-08T20:03:19.627Z,3.90
2018-05-08T20:05:47.623Z,3.27
2018-05-08T20:08:15.643Z,3.37
2018-05-08T20:10:43.675Z,3.80
2018-05-08T20:13:18.059Z,3.50
2018-05-08T20:15:46.135Z,4.10
2018-05-08T20:18:15.051Z,3.90
2018-05-08T20:20:45.039Z,3.60
2018-05-08T20:23:16.835Z,3.20
2018-05-08T20:25:46.799Z,3.10
2018-05-08T20:28:15.723Z,4.67
2018-05-08T20:30:44.705Z,3.00
2018-05-08T20:33:13.455Z,3.33
2018-05-08T20:35:44.723Z,3.90
2018-05-08T20:38:12.751Z,4.53
2018-05-08T20:40:49.883Z,3.60
2018-05-08T20:43:36.363Z,3.27
2018-05-08T20:46:07.554Z,3.63
2018-05-08T20:48:40.273Z,4.00
2018-05-08T20:51:13.979Z,3.70
2018-05-08T20:53:42.347Z,4.00
2018-05-08T20:56:13.031Z,4.23
2018-05-08T20:58:41.839Z,3.20
2018-05-08T21:01:13.166Z,3.80
2018-05-08T21:03:41.106Z,3.80
2018-05-08T21:06:12.419Z,4.33
2018-05-08T21:08:45.380Z,4.17
2018-05-08T21:11:14.311Z,4.70
2018-05-08T21:13:43.119Z,3.23
2018-05-08T21:16:13.035Z,3.70
2018-05-08T21:18:44.535Z,3.43
2018-05-08T21:21:14.483Z,4.03
2018-05-08T21:23:55.583Z,3.50
2018-05-08T21:26:26.839Z,4.00
2018-05-08T21:28:59.575Z,3.80
2018-05-08T21:31:32.287Z,4.20
2018-05-08T21:34:04.091Z,3.40
2018-05-08T21:36:34.091Z,5.40
2018-05-08T21:39:06.590Z,4.63
2018-05-08T21:41:39.467Z,3.43
2018-05-08T21:44:10.379Z,4.57
2018-05-08T21:46:43.711Z,4.40
2018-05-08T21:49:25.165Z,4.63
2018-05-08T21:52:05.976Z,5.03
2018-05-08T21:54:34.933Z,5.70
2018-05-08T21:57:05.009Z,3.90
2018-05-08T21:59:36.890Z,4.57
2018-05-08T22:02:11.226Z,4.40
2018-05-08T22:04:46.244Z,3.80
2018-05-08T22:07:16.185Z,3.80
2018-05-08T22:09:44.237Z,5.03
2018-05-08T22:12:19.214Z,4.20
2018-05-08T22:14:51.233Z,4.30
2018-05-08T22:17:20.170Z,4.50
2018-05-08T22:19:52.085Z,4.70
2018-05-08T22:22:30.382Z,4.40
2018-05-08T22:24:59.405Z,4.23
2018-05-08T22:27:27.545Z,4.60
2018-05-08T22:29:55.597Z,4.10
2018-05-08T22:32:25.562Z,4.60
2018-05-08T22:34:54.545Z,4.20
2018-05-08T22:37:22.575Z,4.27
2018-05-08T22:39:50.590Z,4.07
2018-05-08T22:42:29.015Z,3.50
2018-05-08T22:44:58.945Z,3.30
2018-05-08T22:47:30.717Z,4.07
2018-05-08T22:49:58.733Z,3.40
2018-05-08T22:52:43.789Z,4.37
2018-05-08T22:55:15.857Z,4.30
2018-05-08T22:57:44.969Z,4.43
2018-05-08T23:00:13.962Z,3.80
2018-05-08T23:02:46.369Z,4.90
2018-05-08T23:05:15.141Z,4.40
2018-05-08T23:07:44.929Z,4.10
2018-05-08T23:10:27.985Z,4.10
2018-05-08T23:13:11.221Z,3.60
2018-05-08T23:15:39.241Z,3.90
2018-05-08T23:18:07.287Z,3.93
2018-05-08T23:20:37.225Z,4.10
2018-05-08T23:23:06.245Z,4.77
2018-05-08T23:25:34.273Z,4.90
2018-05-08T23:28:05.454Z,4.40
2018-05-08T23:30:33.489Z,5.07
2018-05-08T23:33:05.777Z,4.80
2018-05-08T23:35:33.810Z,4.50
2018-05-08T23:38:02.733Z,4.47
2018-05-08T23:40:30.757Z,4.33
2018-05-08T23:42:59.525Z,4.50
2018-05-08T23:50:54.353Z,4.87
2018-05-08T23:53:22.353Z,4.57
2018-05-08T23:55:50.377Z,5.03
2018-05-08T23:58:19.357Z,5.00
